createdAt,value
2023-10-01T00:03:37.146Z,101236.69
2023-10-01T00:08:44.656Z,101231.94
2023-10-01T00:13:50.321Z,101234.75
2023-10-01T00:18:55.929Z,101223.50
2023-10-01T00:24:00.990Z,101227.34
2023-10-01T00:29:05.919Z,101230.78
2023-10-01T00:34:11.805Z,101229.38
2023-10-01T00:39:16.650Z,101236.00
2023-10-01T00:44:21.615Z,101227.81
2023-10-01T00:49:33.388Z,101233.78
2023-10-01T00:54:38.581Z,101224.31
2023-10-01T00:59:44.728Z,101219.91
2023-10-01T01:05:07.936Z,101214.75
2023-10-01T01:10:17.804Z,101212.97
2023-10-01T01:15:31.853Z,101199.91
2023-10-01T01:20:44.863Z,101202.44
2023-10-01T01:25:53.497Z,101197.88
2023-10-01T01:31:01.168Z,101196.63
2023-10-01T01:36:07.601Z,101201.63
2023-10-01T01:41:20.530Z,101195.41
2023-10-01T01:46:26.706Z,101198.16
2023-10-01T01:51:32.267Z,101183.34
2023-10-01T01:56:41.550Z,101167.38
2023-10-01T02:01:46.899Z,101171.25
2023-10-01T02:06:54.189Z,101177.75
2023-10-01T02:12:01.092Z,101165.28
2023-10-01T02:17:18.999Z,101182.38
2023-10-01T02:22:25.799Z,101176.97
2023-10-01T02:27:45.561Z,101182.25
2023-10-01T02:33:15.514Z,101178.38
2023-10-01T02:38:38.212Z,101157.69
2023-10-01T02:43:56.755Z,101164.34
2023-10-01T02:49:15.819Z,101153.69
2023-10-01T02:54:23.510Z,101142.03
2023-10-01T02:59:30.955Z,101153.41
2023-10-01T03:04:37.561Z,101144.41
2023-10-01T03:09:42.508Z,101145.59
2023-10-01T03:15:05.144Z,101142.84
2023-10-01T03:20:35.818Z,101163.66
2023-10-01T03:25:44.001Z,101166.84
2023-10-01T03:30:53.339Z,101176.53
2023-10-01T03:35:59.264Z,101183.34
2023-10-01T03:41:10.102Z,101186.97
2023-10-01T03:46:28.161Z,101178.91
2023-10-01T03:51:51.948Z,101147.72
2023-10-01T03:57:00.371Z,101145.91
2023-10-01T04:02:26.932Z,101149.22
2023-10-01T04:07:41.994Z,101132.34
2023-10-01T04:12:51.369Z,101133.44
2023-10-01T04:18:10.731Z,101159.53
2023-10-01T04:23:25.294Z,101164.38
2023-10-01T04:28:32.660Z,101166.91
2023-10-01T04:33:44.321Z,101163.19
2023-10-01T04:38:50.221Z,101156.09
2023-10-01T04:44:07.492Z,101150.00
2023-10-01T04:54:48.665Z,101142.63
2023-10-01T04:59:59.753Z,101151.50
2023-10-01T05:05:12.491Z,101153.88
2023-10-01T05:10:19.152Z,101157.75
2023-10-01T05:15:26.686Z,101173.72
2023-10-01T05:20:30.527Z,101177.75
2023-10-01T05:25:35.466Z,101183.31
2023-10-01T05:30:40.564Z,101190.09
2023-10-01T05:35:46.074Z,101184.53
2023-10-01T05:40:56.478Z,101172.78
2023-10-01T05:46:03.293Z,101183.16
2023-10-01T05:51:07.875Z,101180.25
2023-10-01T05:56:16.438Z,101176.63
2023-10-01T06:01:23.710Z,101178.59
2023-10-01T06:06:27.024Z,101185.97
2023-10-01T06:11:42.847Z,101191.94
2023-10-01T06:16:50.861Z,101189.88
2023-10-01T06:22:14.177Z,101195.81
2023-10-01T06:27:20.520Z,101186.09
2023-10-01T06:32:25.142Z,101173.72
2023-10-01T06:37:47.082Z,101175.09
2023-10-01T06:42:52.087Z,101177.03
2023-10-01T06:47:55.294Z,101176.16
2023-10-01T06:53:01.291Z,101172.66
2023-10-01T06:58:09.835Z,101171.31
2023-10-01T07:03:23.447Z,101180.34
2023-10-01T07:08:38.964Z,101181.97
2023-10-01T07:13:44.346Z,101173.38
2023-10-01T07:18:47.895Z,101171.66
2023-10-01T07:23:51.146Z,101170.16
2023-10-01T07:28:59.655Z,101176.19
2023-10-01T07:34:03.432Z,101189.22
2023-10-01T07:39:07.124Z,101188.34
2023-10-01T07:44:12.377Z,101198.69
2023-10-01T07:49:20.298Z,101205.00
2023-10-01T07:54:25.809Z,101195.28
2023-10-01T07:59:35.376Z,101193.69
2023-10-01T08:04:59.193Z,101190.47
2023-10-01T08:10:06.209Z,101190.81
2023-10-01T08:15:37.085Z,101197.00
2023-10-01T08:20:47.463Z,101192.03
2023-10-01T08:25:52.832Z,101183.75
2023-10-01T08:31:20.835Z,101177.75
2023-10-01T08:36:27.163Z,101179.19
2023-10-01T08:41:33.917Z,101168.22
2023-10-01T08:46:41.580Z,101179.16
2023-10-01T08:51:45.539Z,101168.66
2023-10-01T08:56:48.642Z,101172.13
2023-10-01T09:01:57.223Z,101178.75
2023-10-01T09:07:01.467Z,101185.13
2023-10-01T09:12:19.614Z,101182.81
2023-10-01T09:17:28.004Z,101183.53
2023-10-01T09:22:44.508Z,101189.06
2023-10-01T09:28:01.031Z,101183.03
2023-10-01T09:33:16.162Z,101183.06
2023-10-01T09:38:21.249Z,101189.16
2023-10-01T09:43:32.261Z,101185.50
2023-10-01T09:48:38.456Z,101191.16
2023-10-01T09:53:49.184Z,101187.66
2023-10-01T09:58:59.053Z,101176.28
2023-10-01T10:04:06.029Z,101163.88
2023-10-01T10:09:26.672Z,101156.69
2023-10-01T10:14:58.010Z,101158.22
2023-10-01T10:20:38.961Z,101145.72
2023-10-01T10:25:43.001Z,101131.59
2023-10-01T10:31:35.726Z,101146.88
2023-10-01T10:36:52.069Z,101133.47
2023-10-01T10:42:30.680Z,101142.63
2023-10-01T10:48:01.531Z,101140.28
2023-10-01T10:53:16.206Z,101127.53
2023-10-01T10:58:21.250Z,101134.66
2023-10-01T11:03:42.555Z,101146.94
2023-10-01T11:08:52.731Z,101148.63
2023-10-01T11:14:08.669Z,101135.56
2023-10-01T11:19:15.143Z,101133.97
2023-10-01T11:24:20.223Z,101134.19
2023-10-01T11:29:24.322Z,101121.84
2023-10-01T11:34:32.330Z,101130.31
2023-10-01T11:39:42.149Z,101122.03
2023-10-01T11:44:45.487Z,101112.38
2023-10-01T11:50:08.364Z,101108.25
2023-10-01T11:55:21.644Z,101113.31
2023-10-01T12:00:53.827Z,101104.44
2023-10-01T12:05:58.647Z,101091.69
2023-10-01T12:11:24.465Z,101079.94
2023-10-01T12:16:31.304Z,101083.34
2023-10-01T12:21:35.319Z,101078.25
2023-10-01T12:26:40.214Z,101068.66
2023-10-01T12:31:46.215Z,101060.41
2023-10-01T12:36:49.524Z,101055.91
2023-10-01T12:41:58.858Z,101057.97
2023-10-01T12:47:04.295Z,101059.75
2023-10-01T12:52:10.379Z,101063.03
2023-10-01T12:57:19.739Z,101055.63
2023-10-01T13:02:30.380Z,101069.81
2023-10-01T13:07:37.385Z,101073.50
2023-10-01T13:12:55.160Z,101060.38
2023-10-01T13:18:02.681Z,101046.16
2023-10-01T13:23:08.414Z,101050.28
2023-10-01T13:28:19.290Z,101044.31
2023-10-01T13:33:27.651Z,101034.22
2023-10-01T13:38:57.627Z,101036.84
2023-10-01T13:44:20.215Z,101022.22
2023-10-01T13:49:40.737Z,101017.06
2023-10-01T13:55:01.510Z,101002.06
2023-10-01T14:00:24.652Z,101002.28
2023-10-01T14:05:45.556Z,101006.78
2023-10-01T14:10:52.836Z,100987.66
2023-10-01T14:16:13.081Z,101000.41
2023-10-01T14:21:16.968Z,101001.66
2023-10-01T14:26:22.493Z,100989.56
2023-10-01T14:31:42.698Z,100990.59
2023-10-01T14:36:46.898Z,100986.84
2023-10-01T14:41:51.905Z,100982.91
2023-10-01T14:46:58.352Z,100973.25
2023-10-01T14:52:01.678Z,100972.44
2023-10-01T14:57:05.217Z,100967.88
2023-10-01T15:02:16.659Z,100966.88
2023-10-01T15:07:22.619Z,100963.72
2023-10-01T15:12:34.071Z,100970.50
2023-10-01T15:17:56.336Z,100967.47
2023-10-01T15:22:59.814Z,100956.91
2023-10-01T15:28:11.054Z,100952.28
2023-10-01T15:33:19.498Z,100961.63
2023-10-01T15:38:34.589Z,100965.16
2023-10-01T15:43:44.215Z,100961.97
2023-10-01T15:48:51.236Z,100958.34
2023-10-01T15:53:55.468Z,100957.16
2023-10-01T15:59:04.142Z,100957.03
2023-10-01T16:04:14.776Z,100963.69
2023-10-01T16:09:18.479Z,100972.28
2023-10-01T16:14:28.016Z,100971.94
2023-10-01T16:19:34.067Z,100982.22
2023-10-01T16:24:40.458Z,100985.72
2023-10-01T16:29:44.614Z,100994.81
2023-10-01T16:34:49.845Z,100989.09
2023-10-01T16:39:53.566Z,100985.34
2023-10-01T16:44:59.371Z,100988.28
2023-10-01T16:50:15.676Z,100977.25
2023-10-01T16:55:22.135Z,100984.47
2023-10-01T17:00:38.784Z,100989.84
2023-10-01T17:05:43.927Z,100991.91
2023-10-01T17:10:48.315Z,100989.50
2023-10-01T17:15:53.803Z,100992.56
2023-10-01T17:20:58.543Z,100989.44
2023-10-01T17:26:04.259Z,101004.13
2023-10-01T17:31:08.714Z,101000.31
2023-10-01T17:36:15.461Z,101004.53
2023-10-01T17:41:23.573Z,100998.44
2023-10-01T17:46:34.308Z,100986.16
2023-10-01T17:51:45.920Z,100993.69
2023-10-01T17:56:49.381Z,100991.59
2023-10-01T18:01:53.259Z,100988.28
2023-10-01T18:06:58.900Z,100990.94
2023-10-01T18:12:15.220Z,100989.47
2023-10-01T18:17:18.790Z,100985.16
2023-10-01T18:22:26.550Z,100985.84
2023-10-01T18:27:29.983Z,100983.84
2023-10-01T18:32:34.152Z,100982.03
2023-10-01T18:37:39.380Z,100983.22
2023-10-01T18:42:44.358Z,100987.69
2023-10-01T18:47:49.504Z,100992.81
2023-10-01T18:52:56.097Z,100995.31
2023-10-01T18:58:00.027Z,100990.69
2023-10-01T19:03:03.205Z,100993.31
2023-10-01T19:08:08.706Z,101000.91
2023-10-01T19:13:14.453Z,100998.44
2023-10-01T19:18:17.899Z,100988.31
2023-10-01T19:23:31.748Z,100992.09
2023-10-01T19:28:36.388Z,100993.28
2023-10-01T19:33:39.999Z,100994.75
2023-10-01T19:38:48.705Z,100996.22
2023-10-01T19:43:56.175Z,101010.81
2023-10-01T19:49:01.209Z,100994.88
2023-10-01T19:54:07.393Z,100999.16
2023-10-01T19:59:18.368Z,101002.97
2023-10-01T20:04:22.639Z,101001.09
2023-10-01T20:09:28.981Z,101003.41
2023-10-01T20:14:36.826Z,101006.06
2023-10-01T20:19:44.685Z,101008.31
2023-10-01T20:24:53.652Z,101003.53
2023-10-01T20:29:57.545Z,101005.28
2023-10-01T20:35:03.730Z,101008.06
2023-10-01T20:40:14.210Z,101002.25
2023-10-01T20:45:35.036Z,100996.75
2023-10-01T20:50:41.571Z,100992.78
2023-10-01T20:55:46.516Z,101001.38
2023-10-01T21:00:52.137Z,100993.03
2023-10-01T21:05:56.717Z,101003.13
2023-10-01T21:11:03.637Z,101009.72
2023-10-01T21:16:07.264Z,101004.06
2023-10-01T21:21:12.610Z,101005.50
2023-10-01T21:26:25.077Z,101002.81
2023-10-01T21:31:31.651Z,101006.91
2023-10-01T21:36:40.130Z,101003.22
2023-10-01T21:41:51.076Z,100996.59
2023-10-01T21:46:57.930Z,100995.41
2023-10-01T21:52:07.840Z,100999.31
2023-10-01T21:57:12.312Z,100996.47
2023-10-01T22:02:20.002Z,100994.81
2023-10-01T22:07:24.822Z,100992.41
2023-10-01T22:12:30.476Z,100995.56
2023-10-01T22:17:36.236Z,100983.59
2023-10-01T22:22:50.849Z,100983.22
2023-10-01T22:28:03.694Z,100975.94
2023-10-01T22:33:16.935Z,100980.81
2023-10-01T22:38:21.268Z,100983.94
2023-10-01T22:43:28.367Z,100981.56
2023-10-01T22:48:44.868Z,100976.75
2023-10-01T22:53:48.346Z,100983.31
2023-10-01T22:58:52.905Z,100978.50
2023-10-01T23:04:10.819Z,100979.75
2023-10-01T23:09:20.036Z,100978.25
2023-10-01T23:14:43.707Z,100982.03
2023-10-01T23:19:54.633Z,100975.94
2023-10-01T23:24:58.502Z,100987.63
2023-10-01T23:30:21.318Z,100985.81
2023-10-01T23:40:55.489Z,100983.75
2023-10-01T23:46:01.655Z,100973.50
2023-10-01T23:51:10.493Z,100974.63
2023-10-01T23:56:15.327Z,100973.13
